sensor_id;sensor_type;location;lat;lon;timestamp;pressure;altitude;pressure_sealevel;temperature;humidity
55347;BME280;41218;55.700;38.270;2023-09-07T00:04:04;100232.72;;;10.85;60.81
55347;BME280;41218;55.700;38.270;2023-09-07T00:09:06;100237.44;;;10.85;61.00
55347;BME280;41218;55.700;38.270;2023-09-07T00:14:08;100229.25;;;10.72;60.99
55347;BME280;41218;55.700;38.270;2023-09-07T00:19:08;100249.94;;;10.78;61.19
55347;BME280;41218;55.700;38.270;2023-09-07T00:24:09;100241.03;;;10.69;61.48
55347;BME280;41218;55.700;38.270;2023-09-07T00:29:10;100256.28;;;10.79;61.30
55347;BME280;41218;55.700;38.270;2023-09-07T00:34:11;100253.78;;;10.74;61.61
55347;BME280;41218;55.700;38.270;2023-09-07T00:39:11;100258.88;;;10.72;61.79
55347;BME280;41218;55.700;38.270;2023-09-07T00:44:12;100261.97;;;10.70;61.90
55347;BME280;41218;55.700;38.270;2023-09-07T00:49:13;100251.56;;;10.63;62.03
55347;BME280;41218;55.700;38.270;2023-09-07T00:54:14;100261.81;;;10.63;62.44
55347;BME280;41218;55.700;38.270;2023-09-07T00:59:15;100269.69;;;10.61;62.45
55347;BME280;41218;55.700;38.270;2023-09-07T01:04:15;100271.47;;;10.53;62.44
55347;BME280;41218;55.700;38.270;2023-09-07T01:09:23;100264.78;;;10.54;63.09
55347;BME280;41218;55.700;38.270;2023-09-07T01:14:24;100276.63;;;10.55;62.50
55347;BME280;41218;55.700;38.270;2023-09-07T01:19:24;100280.91;;;10.52;62.83
55347;BME280;41218;55.700;38.270;2023-09-07T01:24:26;100277.06;;;10.57;63.05
55347;BME280;41218;55.700;38.270;2023-09-07T01:29:30;100295.97;;;10.55;62.90
55347;BME280;41218;55.700;38.270;2023-09-07T01:34:31;100297.41;;;10.49;62.87
55347;BME280;41218;55.700;38.270;2023-09-07T01:39:33;100291.00;;;10.45;63.00
55347;BME280;41218;55.700;38.270;2023-09-07T01:44:33;100301.31;;;10.48;62.89
55347;BME280;41218;55.700;38.270;2023-09-07T01:49:35;100309.59;;;10.48;63.17
55347;BME280;41218;55.700;38.270;2023-09-07T01:54:35;100301.59;;;10.42;63.50
55347;BME280;41218;55.700;38.270;2023-09-07T01:59:39;100305.69;;;10.33;63.65
55347;BME280;41218;55.700;38.270;2023-09-07T02:04:40;100312.91;;;10.37;63.48
55347;BME280;41218;55.700;38.270;2023-09-07T02:09:43;100321.53;;;10.36;63.89
55347;BME280;41218;55.700;38.270;2023-09-07T02:14:44;100308.47;;;10.20;64.23
55347;BME280;41218;55.700;38.270;2023-09-07T02:19:45;100327.66;;;10.29;64.47
55347;BME280;41218;55.700;38.270;2023-09-07T02:24:45;100313.09;;;10.16;64.57
55347;BME280;41218;55.700;38.270;2023-09-07T02:29:46;100322.19;;;10.17;64.65
55347;BME280;41218;55.700;38.270;2023-09-07T02:34:46;100336.47;;;10.19;64.67
55347;BME280;41218;55.700;38.270;2023-09-07T02:39:48;100343.28;;;10.09;64.80
55347;BME280;41218;55.700;38.270;2023-09-07T02:44:49;100346.41;;;10.08;65.14
55347;BME280;41218;55.700;38.270;2023-09-07T02:49:50;100355.59;;;10.12;65.31
55347;BME280;41218;55.700;38.270;2023-09-07T02:54:50;100342.84;;;10.07;65.22
55347;BME280;41218;55.700;38.270;2023-09-07T02:59:52;100367.91;;;10.14;65.40
55347;BME280;41218;55.700;38.270;2023-09-07T03:04:54;100373.09;;;10.16;65.13
55347;BME280;41218;55.700;38.270;2023-09-07T03:09:55;100367.69;;;10.07;65.33
55347;BME280;41218;55.700;38.270;2023-09-07T03:14:57;100385.16;;;10.11;65.31
55347;BME280;41218;55.700;38.270;2023-09-07T03:19:58;100385.44;;;10.06;65.61
55347;BME280;41218;55.700;38.270;2023-09-07T03:24:58;100359.91;;;9.97;65.47
55347;BME280;41218;55.700;38.270;2023-09-07T03:29:59;100382.09;;;10.00;65.69
55347;BME280;41218;55.700;38.270;2023-09-07T03:35:01;100392.00;;;10.01;65.62
55347;BME280;41218;55.700;38.270;2023-09-07T03:40:03;100401.56;;;10.04;65.73
55347;BME280;41218;55.700;38.270;2023-09-07T03:45:06;100400.28;;;10.01;65.92
55347;BME280;41218;55.700;38.270;2023-09-07T03:50:06;100395.47;;;9.98;65.81
55347;BME280;41218;55.700;38.270;2023-09-07T03:55:07;100402.13;;;9.97;66.08
55347;BME280;41218;55.700;38.270;2023-09-07T04:00:09;100405.00;;;10.01;66.17
55347;BME280;41218;55.700;38.270;2023-09-07T04:05:10;100404.22;;;10.00;66.10
55347;BME280;41218;55.700;38.270;2023-09-07T04:10:14;100398.84;;;9.92;66.27
55347;BME280;41218;55.700;38.270;2023-09-07T04:15:14;100416.63;;;10.07;66.26
55347;BME280;41218;55.700;38.270;2023-09-07T04:20:15;100420.16;;;10.07;66.45
55347;BME280;41218;55.700;38.270;2023-09-07T04:25:15;100434.88;;;10.11;66.34
55347;BME280;41218;55.700;38.270;2023-09-07T04:30:16;100438.44;;;10.24;66.33
55347;BME280;41218;55.700;38.270;2023-09-07T04:35:17;100444.75;;;10.25;66.55
55347;BME280;41218;55.700;38.270;2023-09-07T04:40:18;100433.59;;;10.21;66.31
55347;BME280;41218;55.700;38.270;2023-09-07T04:45:19;100446.59;;;10.33;66.17
55347;BME280;41218;55.700;38.270;2023-09-07T04:50:20;100449.94;;;10.38;66.59
55347;BME280;41218;55.700;38.270;2023-09-07T04:55:23;100430.03;;;10.33;66.13
55347;BME280;41218;55.700;38.270;2023-09-07T05:00:26;100450.66;;;10.51;66.38
55347;BME280;41218;55.700;38.270;2023-09-07T05:05:27;100458.34;;;10.58;66.15
55347;BME280;41218;55.700;38.270;2023-09-07T05:10:27;100455.78;;;10.65;66.02
55347;BME280;41218;55.700;38.270;2023-09-07T05:15:28;100470.25;;;10.74;66.10
55347;BME280;41218;55.700;38.270;2023-09-07T05:20:31;100467.94;;;10.76;66.03
55347;BME280;41218;55.700;38.270;2023-09-07T05:25:32;100465.38;;;10.83;65.97
55347;BME280;41218;55.700;38.270;2023-09-07T05:30:33;100466.63;;;10.86;65.66
55347;BME280;41218;55.700;38.270;2023-09-07T05:35:33;100459.31;;;10.94;65.54
55347;BME280;41218;55.700;38.270;2023-09-07T05:40:40;100473.53;;;11.08;65.47
55347;BME280;41218;55.700;38.270;2023-09-07T05:45:43;100481.19;;;11.15;65.28
55347;BME280;41218;55.700;38.270;2023-09-07T05:50:44;100472.00;;;11.27;64.96
55347;BME280;41218;55.700;38.270;2023-09-07T05:55:45;100483.81;;;11.39;64.84
55347;BME280;41218;55.700;38.270;2023-09-07T06:00:46;100478.72;;;11.41;64.77
55347;BME280;41218;55.700;38.270;2023-09-07T06:05:47;100471.22;;;11.42;64.53
55347;BME280;41218;55.700;38.270;2023-09-07T06:10:47;100481.22;;;11.47;64.61
55347;BME280;41218;55.700;38.270;2023-09-07T06:15:48;100491.47;;;11.62;64.50
55347;BME280;41218;55.700;38.270;2023-09-07T06:20:54;100457.09;;;11.47;63.91
55347;BME280;41218;55.700;38.270;2023-09-07T06:25:55;100497.81;;;11.78;63.97
55347;BME280;41218;55.700;38.270;2023-09-07T06:30:55;100474.66;;;11.71;63.75
55347;BME280;41218;55.700;38.270;2023-09-07T06:35:56;100491.09;;;11.95;63.69
55347;BME280;41218;55.700;38.270;2023-09-07T06:41:01;100498.47;;;12.07;63.07
55347;BME280;41218;55.700;38.270;2023-09-07T06:46:07;100503.00;;;12.15;62.80
55347;BME280;41218;55.700;38.270;2023-09-07T06:51:08;100498.44;;;12.23;62.62
55347;BME280;41218;55.700;38.270;2023-09-07T06:56:10;100514.34;;;12.46;62.45
55347;BME280;41218;55.700;38.270;2023-09-07T07:01:10;100509.69;;;12.50;61.95
55347;BME280;41218;55.700;38.270;2023-09-07T07:06:11;100516.25;;;12.61;61.85
55347;BME280;41218;55.700;38.270;2023-09-07T07:11:12;100507.28;;;12.68;61.41
55347;BME280;41218;55.700;38.270;2023-09-07T07:16:12;100495.69;;;12.62;61.24
55347;BME280;41218;55.700;38.270;2023-09-07T07:21:14;100518.31;;;12.83;60.88
55347;BME280;41218;55.700;38.270;2023-09-07T07:26:14;100521.78;;;13.00;60.54
55347;BME280;41218;55.700;38.270;2023-09-07T07:31:16;100482.94;;;12.80;59.82
55347;BME280;41218;55.700;38.270;2023-09-07T07:36:21;100524.31;;;13.09;59.99
55347;BME280;41218;55.700;38.270;2023-09-07T07:41:23;100507.81;;;13.16;59.75
55347;BME280;41218;55.700;38.270;2023-09-07T07:46:26;100527.06;;;13.28;59.35
55347;BME280;41218;55.700;38.270;2023-09-07T07:51:26;100523.75;;;13.42;59.14
55347;BME280;41218;55.700;38.270;2023-09-07T07:56:38;100508.00;;;13.50;59.15
55347;BME280;41218;55.700;38.270;2023-09-07T08:01:38;100506.16;;;13.57;58.08
55347;BME280;41218;55.700;38.270;2023-09-07T08:06:40;100520.06;;;13.84;57.66
55347;BME280;41218;55.700;38.270;2023-09-07T08:11:41;100523.69;;;13.88;57.66
55347;BME280;41218;55.700;38.270;2023-09-07T08:16:44;100521.34;;;13.90;57.09
55347;BME280;41218;55.700;38.270;2023-09-07T08:21:45;100513.19;;;14.01;56.90
55347;BME280;41218;55.700;38.270;2023-09-07T08:26:46;100492.59;;;14.06;57.09
55347;BME280;41218;55.700;38.270;2023-09-07T08:31:51;100498.78;;;14.22;56.61
55347;BME280;41218;55.700;38.270;2023-09-07T08:36:52;100499.72;;;14.33;55.71
55347;BME280;41218;55.700;38.270;2023-09-07T08:41:56;100523.75;;;14.49;55.57
55347;BME280;41218;55.700;38.270;2023-09-07T08:46:59;100511.91;;;14.55;54.57
55347;BME280;41218;55.700;38.270;2023-09-07T08:52:04;100496.50;;;14.58;54.56
55347;BME280;41218;55.700;38.270;2023-09-07T08:57:05;100516.59;;;14.78;54.05
55347;BME280;41218;55.700;38.270;2023-09-07T09:02:09;100514.78;;;14.93;54.07
55347;BME280;41218;55.700;38.270;2023-09-07T09:07:11;100528.59;;;14.86;52.99
55347;BME280;41218;55.700;38.270;2023-09-07T09:12:12;100497.03;;;14.71;53.04
55347;BME280;41218;55.700;38.270;2023-09-07T09:17:14;100504.69;;;14.81;53.14
55347;BME280;41218;55.700;38.270;2023-09-07T09:22:15;100489.94;;;14.77;52.65
55347;BME280;41218;55.700;38.270;2023-09-07T09:27:16;100488.16;;;14.95;51.75
55347;BME280;41218;55.700;38.270;2023-09-07T09:32:19;100494.25;;;15.08;51.59
55347;BME280;41218;55.700;38.270;2023-09-07T09:37:20;100525.09;;;15.30;51.13
55347;BME280;41218;55.700;38.270;2023-09-07T09:42:21;100495.13;;;15.16;50.07
55347;BME280;41218;55.700;38.270;2023-09-07T09:47:23;100486.31;;;15.10;50.04
55347;BME280;41218;55.700;38.270;2023-09-07T09:52:24;100489.84;;;15.03;50.08
55347;BME280;41218;55.700;38.270;2023-09-07T09:57:25;100491.53;;;15.15;49.85
55347;BME280;41218;55.700;38.270;2023-09-07T10:02:25;100496.03;;;15.31;49.84
55347;BME280;41218;55.700;38.270;2023-09-07T10:07:51;100496.03;;;15.31;49.91
55347;BME280;41218;55.700;38.270;2023-09-07T10:12:52;100505.19;;;15.28;50.00
55347;BME280;41218;55.700;38.270;2023-09-07T10:18:32;100500.78;;;15.23;49.43
55347;BME280;41218;55.700;38.270;2023-09-07T10:23:43;100502.72;;;15.19;49.98
55347;BME280;41218;55.700;38.270;2023-09-07T10:28:45;100470.81;;;15.09;48.87
55347;BME280;41218;55.700;38.270;2023-09-07T10:33:46;100496.75;;;15.17;48.86
55347;BME280;41218;55.700;38.270;2023-09-07T10:38:47;100491.72;;;15.33;48.30
55347;BME280;41218;55.700;38.270;2023-09-07T10:48:53;100486.84;;;15.27;48.33
55347;BME280;41218;55.700;38.270;2023-09-07T10:53:56;100479.28;;;15.23;47.96
55347;BME280;41218;55.700;38.270;2023-09-07T10:58:57;100486.53;;;15.32;47.92
55347;BME280;41218;55.700;38.270;2023-09-07T11:03:59;100500.41;;;15.28;48.28
55347;BME280;41218;55.700;38.270;2023-09-07T11:09:02;100510.25;;;15.18;48.67
55347;BME280;41218;55.700;38.270;2023-09-07T11:14:05;100496.28;;;15.11;48.70
55347;BME280;41218;55.700;38.270;2023-09-07T11:19:07;100489.56;;;15.16;48.86
55347;BME280;41218;55.700;38.270;2023-09-07T11:24:08;100494.50;;;15.33;48.20
55347;BME280;41218;55.700;38.270;2023-09-07T11:29:09;100477.88;;;15.44;48.03
55347;BME280;41218;55.700;38.270;2023-09-07T11:34:10;100465.19;;;15.50;47.51
55347;BME280;41218;55.700;38.270;2023-09-07T11:39:11;100490.06;;;15.73;47.80
55347;BME280;41218;55.700;38.270;2023-09-07T11:44:15;100488.00;;;15.67;47.49
55347;BME280;41218;55.700;38.270;2023-09-07T11:49:15;100497.50;;;15.58;47.36
55347;BME280;41218;55.700;38.270;2023-09-07T11:54:20;100490.63;;;15.45;47.84
55347;BME280;41218;55.700;38.270;2023-09-07T11:59:20;100485.47;;;15.47;47.91
55347;BME280;41218;55.700;38.270;2023-09-07T12:04:21;100478.44;;;15.64;47.26
55347;BME280;41218;55.700;38.270;2023-09-07T12:09:22;100472.53;;;15.73;47.03
55347;BME280;41218;55.700;38.270;2023-09-07T12:14:22;100481.34;;;15.78;47.17
55347;BME280;41218;55.700;38.270;2023-09-07T12:19:23;100479.34;;;15.79;46.61
55347;BME280;41218;55.700;38.270;2023-09-07T12:24:24;100457.72;;;15.61;46.04
55347;BME280;41218;55.700;38.270;2023-09-07T12:29:25;100481.66;;;15.70;46.01
55347;BME280;41218;55.700;38.270;2023-09-07T12:34:26;100469.19;;;15.53;46.08
55347;BME280;41218;55.700;38.270;2023-09-07T12:39:26;100467.56;;;15.48;46.21
55347;BME280;41218;55.700;38.270;2023-09-07T12:44:27;100463.19;;;15.47;46.16
55347;BME280;41218;55.700;38.270;2023-09-07T12:49:27;100477.16;;;15.54;46.23
55347;BME280;41218;55.700;38.270;2023-09-07T12:54:28;100452.34;;;15.38;45.39
55347;BME280;41218;55.700;38.270;2023-09-07T12:59:29;100463.97;;;15.48;45.68
55347;BME280;41218;55.700;38.270;2023-09-07T13:04:30;100451.22;;;15.43;45.85
55347;BME280;41218;55.700;38.270;2023-09-07T13:09:30;100456.44;;;15.52;45.48
55347;BME280;41218;55.700;38.270;2023-09-07T13:14:31;100461.66;;;15.57;45.33
55347;BME280;41218;55.700;38.270;2023-09-07T13:19:31;100460.81;;;15.49;45.97
55347;BME280;41218;55.700;38.270;2023-09-07T13:24:32;100458.03;;;15.49;46.10
55347;BME280;41218;55.700;38.270;2023-09-07T13:29:33;100460.41;;;15.51;46.24
55347;BME280;41218;55.700;38.270;2023-09-07T13:34:33;100449.16;;;15.36;46.54
55347;BME280;41218;55.700;38.270;2023-09-07T13:39:34;100436.69;;;15.19;46.62
55347;BME280;41218;55.700;38.270;2023-09-07T13:44:34;100443.09;;;15.23;46.57
55347;BME280;41218;55.700;38.270;2023-09-07T13:49:35;100461.50;;;15.35;46.16
55347;BME280;41218;55.700;38.270;2023-09-07T13:54:35;100435.94;;;15.26;46.24
55347;BME280;41218;55.700;38.270;2023-09-07T13:59:36;100444.28;;;15.26;46.21
55347;BME280;41218;55.700;38.270;2023-09-07T14:04:36;100434.75;;;15.27;46.38
55347;BME280;41218;55.700;38.270;2023-09-07T14:09:37;100447.50;;;15.28;46.18
55347;BME280;41218;55.700;38.270;2023-09-07T14:14:39;100433.13;;;15.22;46.53
55347;BME280;41218;55.700;38.270;2023-09-07T14:19:41;100435.56;;;15.28;46.42
55347;BME280;41218;55.700;38.270;2023-09-07T14:24:42;100434.78;;;15.31;46.34
55347;BME280;41218;55.700;38.270;2023-09-07T14:29:42;100424.00;;;15.26;46.47
55347;BME280;41218;55.700;38.270;2023-09-07T14:34:43;100417.94;;;15.16;46.02
55347;BME280;41218;55.700;38.270;2023-09-07T14:39:44;100422.34;;;15.17;46.29
55347;BME280;41218;55.700;38.270;2023-09-07T14:44:47;100434.69;;;15.20;46.08
55347;BME280;41218;55.700;38.270;2023-09-07T14:49:48;100422.31;;;15.14;46.56
55347;BME280;41218;55.700;38.270;2023-09-07T14:54:49;100425.88;;;15.14;46.83
55347;BME280;41218;55.700;38.270;2023-09-07T14:59:49;100415.91;;;15.10;46.76
55347;BME280;41218;55.700;38.270;2023-09-07T15:04:51;100420.31;;;15.11;46.88
55347;BME280;41218;55.700;38.270;2023-09-07T15:09:51;100423.59;;;15.23;47.20
55347;BME280;41218;55.700;38.270;2023-09-07T15:14:52;100437.81;;;15.11;47.37
55347;BME280;41218;55.700;38.270;2023-09-07T15:19:53;100436.16;;;15.03;46.97
55347;BME280;41218;55.700;38.270;2023-09-07T15:24:53;100423.31;;;14.91;47.02
55347;BME280;41218;55.700;38.270;2023-09-07T15:29:55;100428.81;;;14.88;47.43
55347;BME280;41218;55.700;38.270;2023-09-07T15:34:56;100434.75;;;14.82;47.46
55347;BME280;41218;55.700;38.270;2023-09-07T15:39:57;100437.50;;;14.79;47.92
55347;BME280;41218;55.700;38.270;2023-09-07T15:44:57;100432.53;;;14.61;48.34
55347;BME280;41218;55.700;38.270;2023-09-07T15:49:58;100422.91;;;14.55;48.74
55347;BME280;41218;55.700;38.270;2023-09-07T15:54:58;100446.44;;;14.58;49.24
55347;BME280;41218;55.700;38.270;2023-09-07T15:59:59;100441.50;;;14.48;49.56
55347;BME280;41218;55.700;38.270;2023-09-07T16:05:02;100437.38;;;14.34;50.43
55347;BME280;41218;55.700;38.270;2023-09-07T16:10:03;100435.72;;;14.30;50.42
55347;BME280;41218;55.700;38.270;2023-09-07T16:15:06;100437.13;;;14.16;50.61
55347;BME280;41218;55.700;38.270;2023-09-07T16:20:08;100445.41;;;14.09;51.05
55347;BME280;41218;55.700;38.270;2023-09-07T16:25:09;100428.50;;;13.95;51.52
55347;BME280;41218;55.700;38.270;2023-09-07T16:30:10;100438.81;;;13.94;51.72
55347;BME280;41218;55.700;38.270;2023-09-07T16:35:10;100423.88;;;13.76;51.69
55347;BME280;41218;55.700;38.270;2023-09-07T16:40:12;100427.75;;;13.68;51.90
55347;BME280;41218;55.700;38.270;2023-09-07T16:45:14;100435.59;;;13.62;52.29
55347;BME280;41218;55.700;38.270;2023-09-07T16:50:15;100436.13;;;13.45;52.48
55347;BME280;41218;55.700;38.270;2023-09-07T16:55:15;100445.19;;;13.41;52.79
55347;BME280;41218;55.700;38.270;2023-09-07T17:00:16;100440.28;;;13.31;52.92
55347;BME280;41218;55.700;38.270;2023-09-07T17:05:17;100439.63;;;13.18;52.96
55347;BME280;41218;55.700;38.270;2023-09-07T17:10:37;100420.19;;;12.95;53.46
55347;BME280;41218;55.700;38.270;2023-09-07T17:15:37;100435.19;;;12.91;53.58
55347;BME280;41218;55.700;38.270;2023-09-07T17:20:38;100422.59;;;12.74;53.77
55347;BME280;41218;55.700;38.270;2023-09-07T17:25:39;100437.19;;;12.71;53.76
55347;BME280;41218;55.700;38.270;2023-09-07T17:30:39;100419.50;;;12.56;54.01
55347;BME280;41218;55.700;38.270;2023-09-07T17:35:40;100422.44;;;12.43;54.18
55347;BME280;41218;55.700;38.270;2023-09-07T17:40:40;100411.84;;;12.30;54.23
55347;BME280;41218;55.700;38.270;2023-09-07T17:45:41;100428.03;;;12.28;54.24
55347;BME280;41218;55.700;38.270;2023-09-07T17:50:42;100412.66;;;12.11;54.62
55347;BME280;41218;55.700;38.270;2023-09-07T17:55:43;100429.56;;;12.06;54.73
55347;BME280;41218;55.700;38.270;2023-09-07T18:00:43;100421.03;;;11.95;54.90
55347;BME280;41218;55.700;38.270;2023-09-07T18:05:44;100431.13;;;11.87;55.25
55347;BME280;41218;55.700;38.270;2023-09-07T18:10:45;100403.31;;;11.64;55.33
55347;BME280;41218;55.700;38.270;2023-09-07T18:15:46;100418.47;;;11.70;55.58
55347;BME280;41218;55.700;38.270;2023-09-07T18:20:47;100394.59;;;11.46;55.43
55347;BME280;41218;55.700;38.270;2023-09-07T18:25:48;100370.41;;;11.27;55.81
55347;BME280;41218;55.700;38.270;2023-09-07T18:30:49;100398.00;;;11.39;55.92
55347;BME280;41218;55.700;38.270;2023-09-07T18:36:00;100402.38;;;11.40;56.30
55347;BME280;41218;55.700;38.270;2023-09-07T18:41:01;100405.13;;;11.40;55.91
55347;BME280;41218;55.700;38.270;2023-09-07T18:46:03;100390.53;;;11.24;56.07
55347;BME280;41218;55.700;38.270;2023-09-07T18:51:06;100379.00;;;11.06;56.49
55347;BME280;41218;55.700;38.270;2023-09-07T18:56:08;100388.94;;;11.07;56.46
55347;BME280;41218;55.700;38.270;2023-09-07T19:01:14;100390.09;;;11.06;57.00
55347;BME280;41218;55.700;38.270;2023-09-07T19:06:15;100363.31;;;10.94;56.72
55347;BME280;41218;55.700;38.270;2023-09-07T19:11:16;100362.50;;;10.94;57.05
55347;BME280;41218;55.700;38.270;2023-09-07T19:16:20;100363.94;;;10.88;56.97
55347;BME280;41218;55.700;38.270;2023-09-07T19:21:21;100352.34;;;10.82;57.18
55347;BME280;41218;55.700;38.270;2023-09-07T19:26:34;100354.22;;;10.78;57.83
55347;BME280;41218;55.700;38.270;2023-09-07T19:31:37;100361.72;;;10.77;57.56
55347;BME280;41218;55.700;38.270;2023-09-07T19:36:40;100354.84;;;10.71;57.71
55347;BME280;41218;55.700;38.270;2023-09-07T19:41:41;100349.75;;;10.73;58.01
55347;BME280;41218;55.700;38.270;2023-09-07T19:46:44;100330.66;;;10.68;58.29
55347;BME280;41218;55.700;38.270;2023-09-07T19:51:46;100331.03;;;10.67;58.06
55347;BME280;41218;55.700;38.270;2023-09-07T19:56:47;100336.28;;;10.72;58.18
55347;BME280;41218;55.700;38.270;2023-09-07T20:01:58;100337.81;;;10.69;58.91
55347;BME280;41218;55.700;38.270;2023-09-07T20:06:59;100328.53;;;10.61;59.21
55347;BME280;41218;55.700;38.270;2023-09-07T20:12:00;100329.50;;;10.69;58.92
55347;BME280;41218;55.700;38.270;2023-09-07T20:17:13;100317.81;;;10.60;59.34
55347;BME280;41218;55.700;38.270;2023-09-07T20:22:14;100329.06;;;10.67;59.10
55347;BME280;41218;55.700;38.270;2023-09-07T20:27:18;100308.72;;;10.59;59.14
55347;BME280;41218;55.700;38.270;2023-09-07T20:32:23;100311.50;;;10.59;59.37
55347;BME280;41218;55.700;38.270;2023-09-07T20:37:24;100291.25;;;10.55;59.58
55347;BME280;41218;55.700;38.270;2023-09-07T20:42:25;100265.28;;;10.44;59.92
55347;BME280;41218;55.700;38.270;2023-09-07T20:47:25;100281.00;;;10.56;59.93
55347;BME280;41218;55.700;38.270;2023-09-07T20:52:26;100265.56;;;10.55;60.21
55347;BME280;41218;55.700;38.270;2023-09-07T20:57:26;100286.44;;;10.68;60.28
55347;BME280;41218;55.700;38.270;2023-09-07T21:02:27;100286.53;;;10.72;60.33
55347;BME280;41218;55.700;38.270;2023-09-07T21:07:29;100266.03;;;10.57;60.23
55347;BME280;41218;55.700;38.270;2023-09-07T21:12:30;100273.59;;;10.60;60.68
55347;BME280;41218;55.700;38.270;2023-09-07T21:17:30;100283.75;;;10.72;60.50
55347;BME280;41218;55.700;38.270;2023-09-07T21:22:40;100275.81;;;10.70;61.16
55347;BME280;41218;55.700;38.270;2023-09-07T21:27:41;100256.66;;;10.61;60.80
55347;BME280;41218;55.700;38.270;2023-09-07T21:32:41;100269.13;;;10.71;60.63
55347;BME280;41218;55.700;38.270;2023-09-07T21:37:43;100275.00;;;10.86;61.02
55347;BME280;41218;55.700;38.270;2023-09-07T21:42:44;100250.38;;;10.80;61.13
55347;BME280;41218;55.700;38.270;2023-09-07T21:47:45;100269.72;;;10.96;61.25
55347;BME280;41218;55.700;38.270;2023-09-07T21:52:45;100264.72;;;11.02;61.28
55347;BME280;41218;55.700;38.270;2023-09-07T21:57:46;100256.94;;;11.08;61.48
55347;BME280;41218;55.700;38.270;2023-09-07T22:02:47;100255.41;;;11.10;61.45
55347;BME280;41218;55.700;38.270;2023-09-07T22:07:49;100225.84;;;10.95;61.70
55347;BME280;41218;55.700;38.270;2023-09-07T22:12:53;100230.72;;;11.01;61.79
55347;BME280;41218;55.700;38.270;2023-09-07T22:18:01;100250.75;;;11.14;62.01
55347;BME280;41218;55.700;38.270;2023-09-07T22:23:02;100236.56;;;11.16;62.24
55347;BME280;41218;55.700;38.270;2023-09-07T22:28:05;100218.72;;;11.13;61.87
55347;BME280;41218;55.700;38.270;2023-09-07T22:33:06;100233.75;;;11.32;62.10
55347;BME280;41218;55.700;38.270;2023-09-07T22:38:07;100224.94;;;11.26;62.12
55347;BME280;41218;55.700;38.270;2023-09-07T22:43:08;100224.56;;;11.28;62.26
55347;BME280;41218;55.700;38.270;2023-09-07T22:48:09;100218.97;;;11.24;62.30
55347;BME280;41218;55.700;38.270;2023-09-07T22:53:09;100214.66;;;11.27;62.21
55347;BME280;41218;55.700;38.270;2023-09-07T22:58:10;100219.53;;;11.33;62.61
55347;BME280;41218;55.700;38.270;2023-09-07T23:03:11;100214.44;;;11.35;62.67
55347;BME280;41218;55.700;38.270;2023-09-07T23:08:13;100199.38;;;11.33;62.79
55347;BME280;41218;55.700;38.270;2023-09-07T23:13:13;100203.16;;;11.44;62.77
55347;BME280;41218;55.700;38.270;2023-09-07T23:18:16;100180.28;;;11.28;62.67
55347;BME280;41218;55.700;38.270;2023-09-07T23:23:17;100196.31;;;11.38;63.05
55347;BME280;41218;55.700;38.270;2023-09-07T23:28:17;100183.63;;;11.37;62.86
55347;BME280;41218;55.700;38.270;2023-09-07T23:33:18;100188.88;;;11.42;63.16
55347;BME280;41218;55.700;38.270;2023-09-07T23:38:19;100171.75;;;11.36;63.33
55347;BME280;41218;55.700;38.270;2023-09-07T23:43:19;100173.88;;;11.43;63.48
55347;BME280;41218;55.700;38.270;2023-09-07T23:48:20;100187.94;;;11.54;63.29
55347;BME280;41218;55.700;38.270;2023-09-07T23:53:21;100176.44;;;11.52;63.45
55347;BME280;41218;55.700;38.270;2023-09-07T23:58:21;100180.94;;;11.60;63.27
